sensor_id;sensor_type;location;lat;lon;timestamp;pressure;altitude;pressure_sealevel;temperature
9985;BMP180;16737;50.932;6.780;2024-02-16T00:01:31;99754.00;;;16.10
9985;BMP180;16737;50.932;6.780;2024-02-16T00:03:59;99750.00;;;16.10
9985;BMP180;16737;50.932;6.780;2024-02-16T00:06:27;99760.00;;;16.10
9985;BMP180;16737;50.932;6.780;2024-02-16T00:08:54;99758.00;;;16.10
9985;BMP180;16737;50.932;6.780;2024-02-16T00:11:22;99754.00;;;16.10
9985;BMP180;16737;50.932;6.780;2024-02-16T00:13:51;99755.00;;;16.10
9985;BMP180;16737;50.932;6.780;2024-02-16T00:16:18;99755.00;;;16.10
9985;BMP180;16737;50.932;6.780;2024-02-16T00:18:47;99747.00;;;16.10
9985;BMP180;16737;50.932;6.780;2024-02-16T00:21:16;99755.00;;;16.00
9985;BMP180;16737;50.932;6.780;2024-02-16T00:23:43;99748.00;;;16.00
9985;BMP180;16737;50.932;6.780;2024-02-16T00:26:11;99754.00;;;16.00
9985;BMP180;16737;50.932;6.780;2024-02-16T00:28:38;99752.00;;;15.90
9985;BMP180;16737;50.932;6.780;2024-02-16T00:31:08;99756.00;;;15.90
9985;BMP180;16737;50.932;6.780;2024-02-16T00:33:36;99766.00;;;15.90
9985;BMP180;16737;50.932;6.780;2024-02-16T00:36:03;99760.00;;;15.90
9985;BMP180;16737;50.932;6.780;2024-02-16T00:38:32;99762.00;;;15.90
9985;BMP180;16737;50.932;6.780;2024-02-16T00:41:00;99766.00;;;16.00
9985;BMP180;16737;50.932;6.780;2024-02-16T00:43:28;99776.00;;;16.00
9985;BMP180;16737;50.932;6.780;2024-02-16T00:45:55;99761.00;;;16.00
9985;BMP180;16737;50.932;6.780;2024-02-16T00:48:22;99761.00;;;16.10
9985;BMP180;16737;50.932;6.780;2024-02-16T00:50:50;99763.00;;;16.10
9985;BMP180;16737;50.932;6.780;2024-02-16T00:53:18;99761.00;;;16.10
9985;BMP180;16737;50.932;6.780;2024-02-16T00:55:46;99760.00;;;16.20
9985;BMP180;16737;50.932;6.780;2024-02-16T00:58:14;99765.00;;;16.20
9985;BMP180;16737;50.932;6.780;2024-02-16T01:00:41;99766.00;;;16.20
9985;BMP180;16737;50.932;6.780;2024-02-16T01:03:09;99766.00;;;16.30
9985;BMP180;16737;50.932;6.780;2024-02-16T01:05:39;99764.00;;;16.30
9985;BMP180;16737;50.932;6.780;2024-02-16T01:08:07;99763.00;;;16.30
9985;BMP180;16737;50.932;6.780;2024-02-16T01:10:34;99758.00;;;16.30
9985;BMP180;16737;50.932;6.780;2024-02-16T01:13:03;99761.00;;;16.40
9985;BMP180;16737;50.932;6.780;2024-02-16T01:15:31;99762.00;;;16.40
9985;BMP180;16737;50.932;6.780;2024-02-16T01:17:58;99752.00;;;16.40
9985;BMP180;16737;50.932;6.780;2024-02-16T01:20:26;99747.00;;;16.40
9985;BMP180;16737;50.932;6.780;2024-02-16T01:22:57;99746.00;;;16.50
9985;BMP180;16737;50.932;6.780;2024-02-16T01:25:24;99750.00;;;16.50
9985;BMP180;16737;50.932;6.780;2024-02-16T01:27:52;99746.00;;;16.50
9985;BMP180;16737;50.932;6.780;2024-02-16T01:30:20;99751.00;;;16.50
9985;BMP180;16737;50.932;6.780;2024-02-16T01:32:48;99739.00;;;16.50
9985;BMP180;16737;50.932;6.780;2024-02-16T01:35:15;99738.00;;;16.50
9985;BMP180;16737;50.932;6.780;2024-02-16T01:37:43;99732.00;;;16.50
9985;BMP180;16737;50.932;6.780;2024-02-16T01:40:11;99744.00;;;16.60
9985;BMP180;16737;50.932;6.780;2024-02-16T01:42:40;99741.00;;;16.60
9985;BMP180;16737;50.932;6.780;2024-02-16T01:45:09;99739.00;;;16.60
9985;BMP180;16737;50.932;6.780;2024-02-16T01:47:39;99742.00;;;16.60
9985;BMP180;16737;50.932;6.780;2024-02-16T01:50:08;99740.00;;;16.60
9985;BMP180;16737;50.932;6.780;2024-02-16T01:52:36;99742.00;;;16.60
9985;BMP180;16737;50.932;6.780;2024-02-16T01:55:04;99748.00;;;16.60
9985;BMP180;16737;50.932;6.780;2024-02-16T01:57:35;99739.00;;;16.60
9985;BMP180;16737;50.932;6.780;2024-02-16T02:00:03;99735.00;;;16.60
9985;BMP180;16737;50.932;6.780;2024-02-16T02:02:33;99742.00;;;16.70
9985;BMP180;16737;50.932;6.780;2024-02-16T02:05:03;99746.00;;;16.70
9985;BMP180;16737;50.932;6.780;2024-02-16T02:07:31;99739.00;;;16.70
9985;BMP180;16737;50.932;6.780;2024-02-16T02:09:58;99742.00;;;16.70
9985;BMP180;16737;50.932;6.780;2024-02-16T02:12:26;99743.00;;;16.70
9985;BMP180;16737;50.932;6.780;2024-02-16T02:14:53;99747.00;;;16.70
9985;BMP180;16737;50.932;6.780;2024-02-16T02:17:21;99746.00;;;16.70
9985;BMP180;16737;50.932;6.780;2024-02-16T02:19:48;99734.00;;;16.70
9985;BMP180;16737;50.932;6.780;2024-02-16T02:22:17;99737.00;;;16.60
9985;BMP180;16737;50.932;6.780;2024-02-16T02:24:48;99730.00;;;16.60
9985;BMP180;16737;50.932;6.780;2024-02-16T02:27:16;99737.00;;;16.70
9985;BMP180;16737;50.932;6.780;2024-02-16T02:29:44;99727.00;;;16.70
9985;BMP180;16737;50.932;6.780;2024-02-16T02:32:12;99725.00;;;16.70
9985;BMP180;16737;50.932;6.780;2024-02-16T02:34:39;99722.00;;;16.70
9985;BMP180;16737;50.932;6.780;2024-02-16T02:37:07;99729.00;;;16.70
9985;BMP180;16737;50.932;6.780;2024-02-16T02:39:35;99729.00;;;16.70
9985;BMP180;16737;50.932;6.780;2024-02-16T02:42:03;99723.00;;;16.70
9985;BMP180;16737;50.932;6.780;2024-02-16T02:44:30;99724.00;;;16.70
9985;BMP180;16737;50.932;6.780;2024-02-16T02:46:58;99726.00;;;16.60
9985;BMP180;16737;50.932;6.780;2024-02-16T02:49:26;99731.00;;;16.60
9985;BMP180;16737;50.932;6.780;2024-02-16T02:51:53;99722.00;;;16.60
9985;BMP180;16737;50.932;6.780;2024-02-16T02:54:24;99717.00;;;16.60
9985;BMP180;16737;50.932;6.780;2024-02-16T02:56:53;99729.00;;;16.50
9985;BMP180;16737;50.932;6.780;2024-02-16T02:59:21;99716.00;;;16.50
9985;BMP180;16737;50.932;6.780;2024-02-16T03:01:48;99714.00;;;16.50
9985;BMP180;16737;50.932;6.780;2024-02-16T03:04:16;99704.00;;;16.50
9985;BMP180;16737;50.932;6.780;2024-02-16T03:06:43;99715.00;;;16.50
9985;BMP180;16737;50.932;6.780;2024-02-16T03:09:11;99719.00;;;16.50
9985;BMP180;16737;50.932;6.780;2024-02-16T03:11:39;99707.00;;;16.50
9985;BMP180;16737;50.932;6.780;2024-02-16T03:14:09;99707.00;;;16.50
9985;BMP180;16737;50.932;6.780;2024-02-16T03:16:36;99703.00;;;16.50
9985;BMP180;16737;50.932;6.780;2024-02-16T03:19:06;99702.00;;;16.40
9985;BMP180;16737;50.932;6.780;2024-02-16T03:21:34;99706.00;;;16.40
9985;BMP180;16737;50.932;6.780;2024-02-16T03:24:02;99711.00;;;16.40
9985;BMP180;16737;50.932;6.780;2024-02-16T03:26:30;99701.00;;;16.40
9985;BMP180;16737;50.932;6.780;2024-02-16T03:28:58;99705.00;;;16.40
9985;BMP180;16737;50.932;6.780;2024-02-16T03:31:27;99697.00;;;16.50
9985;BMP180;16737;50.932;6.780;2024-02-16T03:33:55;99697.00;;;16.50
9985;BMP180;16737;50.932;6.780;2024-02-16T03:36:24;99702.00;;;16.50
9985;BMP180;16737;50.932;6.780;2024-02-16T03:38:52;99698.00;;;16.60
9985;BMP180;16737;50.932;6.780;2024-02-16T03:41:20;99702.00;;;16.60
9985;BMP180;16737;50.932;6.780;2024-02-16T03:43:49;99710.00;;;16.60
9985;BMP180;16737;50.932;6.780;2024-02-16T03:46:16;99706.00;;;16.60
9985;BMP180;16737;50.932;6.780;2024-02-16T03:48:45;99700.00;;;16.60
9985;BMP180;16737;50.932;6.780;2024-02-16T03:51:13;99699.00;;;16.60
9985;BMP180;16737;50.932;6.780;2024-02-16T03:53:40;99693.00;;;16.60
9985;BMP180;16737;50.932;6.780;2024-02-16T03:56:07;99703.00;;;16.60
9985;BMP180;16737;50.932;6.780;2024-02-16T03:58:36;99701.00;;;16.60
9985;BMP180;16737;50.932;6.780;2024-02-16T04:01:04;99689.00;;;16.70
9985;BMP180;16737;50.932;6.780;2024-02-16T04:03:32;99688.00;;;16.70
9985;BMP180;16737;50.932;6.780;2024-02-16T04:06:01;99690.00;;;16.70
9985;BMP180;16737;50.932;6.780;2024-02-16T04:08:30;99685.00;;;16.70
9985;BMP180;16737;50.932;6.780;2024-02-16T04:10:58;99691.00;;;16.80
9985;BMP180;16737;50.932;6.780;2024-02-16T04:13:25;99684.00;;;16.80
9985;BMP180;16737;50.932;6.780;2024-02-16T04:15:53;99688.00;;;16.80
9985;BMP180;16737;50.932;6.780;2024-02-16T04:18:20;99702.00;;;16.80
9985;BMP180;16737;50.932;6.780;2024-02-16T04:20:47;99704.00;;;16.80
9985;BMP180;16737;50.932;6.780;2024-02-16T04:23:16;99718.00;;;16.80
9985;BMP180;16737;50.932;6.780;2024-02-16T04:25:43;99722.00;;;16.90
9985;BMP180;16737;50.932;6.780;2024-02-16T04:28:11;99725.00;;;16.90
9985;BMP180;16737;50.932;6.780;2024-02-16T04:30:39;99728.00;;;17.00
9985;BMP180;16737;50.932;6.780;2024-02-16T04:33:07;99731.00;;;17.00
9985;BMP180;16737;50.932;6.780;2024-02-16T04:35:34;99734.00;;;17.00
9985;BMP180;16737;50.932;6.780;2024-02-16T04:38:01;99729.00;;;17.00
9985;BMP180;16737;50.932;6.780;2024-02-16T04:40:35;99741.00;;;17.10
9985;BMP180;16737;50.932;6.780;2024-02-16T04:43:04;99739.00;;;17.10
9985;BMP180;16737;50.932;6.780;2024-02-16T04:45:31;99736.00;;;17.10
9985;BMP180;16737;50.932;6.780;2024-02-16T04:48:03;99737.00;;;17.20
9985;BMP180;16737;50.932;6.780;2024-02-16T04:50:31;99739.00;;;17.20
9985;BMP180;16737;50.932;6.780;2024-02-16T04:52:59;99739.00;;;17.30
9985;BMP180;16737;50.932;6.780;2024-02-16T04:55:27;99751.00;;;17.30
9985;BMP180;16737;50.932;6.780;2024-02-16T04:57:56;99752.00;;;17.30
9985;BMP180;16737;50.932;6.780;2024-02-16T05:00:24;99754.00;;;17.40
9985;BMP180;16737;50.932;6.780;2024-02-16T05:02:52;99746.00;;;17.40
9985;BMP180;16737;50.932;6.780;2024-02-16T05:05:19;99755.00;;;17.40
9985;BMP180;16737;50.932;6.780;2024-02-16T05:07:50;99753.00;;;17.50
9985;BMP180;16737;50.932;6.780;2024-02-16T05:10:19;99753.00;;;17.50
9985;BMP180;16737;50.932;6.780;2024-02-16T05:13:12;99742.00;;;17.50
9985;BMP180;16737;50.932;6.780;2024-02-16T05:15:40;99744.00;;;17.50
9985;BMP180;16737;50.932;6.780;2024-02-16T05:18:07;99745.00;;;17.60
9985;BMP180;16737;50.932;6.780;2024-02-16T05:20:37;99752.00;;;17.60
9985;BMP180;16737;50.932;6.780;2024-02-16T05:23:04;99745.00;;;17.60
9985;BMP180;16737;50.932;6.780;2024-02-16T05:25:32;99739.00;;;17.60
9985;BMP180;16737;50.932;6.780;2024-02-16T05:27:59;99729.00;;;17.60
9985;BMP180;16737;50.932;6.780;2024-02-16T05:30:28;99738.00;;;17.60
9985;BMP180;16737;50.932;6.780;2024-02-16T05:32:58;99734.00;;;17.60
9985;BMP180;16737;50.932;6.780;2024-02-16T05:35:26;99734.00;;;17.60
9985;BMP180;16737;50.932;6.780;2024-02-16T05:37:55;99731.00;;;17.60
9985;BMP180;16737;50.932;6.780;2024-02-16T05:40:22;99733.00;;;17.60
9985;BMP180;16737;50.932;6.780;2024-02-16T05:42:56;99731.00;;;17.60
9985;BMP180;16737;50.932;6.780;2024-02-16T05:45:24;99727.00;;;17.60
9985;BMP180;16737;50.932;6.780;2024-02-16T05:47:53;99723.00;;;17.60
9985;BMP180;16737;50.932;6.780;2024-02-16T05:50:21;99728.00;;;17.60
9985;BMP180;16737;50.932;6.780;2024-02-16T05:52:49;99732.00;;;17.60
9985;BMP180;16737;50.932;6.780;2024-02-16T05:55:17;99733.00;;;17.60
9985;BMP180;16737;50.932;6.780;2024-02-16T05:57:44;99729.00;;;17.60
9985;BMP180;16737;50.932;6.780;2024-02-16T06:00:12;99732.00;;;17.60
9985;BMP180;16737;50.932;6.780;2024-02-16T06:02:41;99733.00;;;17.60
9985;BMP180;16737;50.932;6.780;2024-02-16T06:05:10;99730.00;;;17.60
9985;BMP180;16737;50.932;6.780;2024-02-16T06:07:38;99735.00;;;17.60
9985;BMP180;16737;50.932;6.780;2024-02-16T06:10:06;99735.00;;;17.60
9985;BMP180;16737;50.932;6.780;2024-02-16T06:12:37;99729.00;;;17.60
9985;BMP180;16737;50.932;6.780;2024-02-16T06:15:05;99719.00;;;17.50
9985;BMP180;16737;50.932;6.780;2024-02-16T06:17:33;99723.00;;;17.50
9985;BMP180;16737;50.932;6.780;2024-02-16T06:20:00;99720.00;;;17.50
9985;BMP180;16737;50.932;6.780;2024-02-16T06:22:30;99725.00;;;17.50
9985;BMP180;16737;50.932;6.780;2024-02-16T06:24:59;99719.00;;;17.50
9985;BMP180;16737;50.932;6.780;2024-02-16T06:27:26;99723.00;;;17.40
9985;BMP180;16737;50.932;6.780;2024-02-16T06:29:54;99721.00;;;17.40
9985;BMP180;16737;50.932;6.780;2024-02-16T06:32:21;99721.00;;;17.30
9985;BMP180;16737;50.932;6.780;2024-02-16T06:34:49;99722.00;;;17.30
9985;BMP180;16737;50.932;6.780;2024-02-16T06:37:16;99717.00;;;17.30
9985;BMP180;16737;50.932;6.780;2024-02-16T06:39:45;99718.00;;;17.20
9985;BMP180;16737;50.932;6.780;2024-02-16T06:42:12;99734.00;;;17.20
9985;BMP180;16737;50.932;6.780;2024-02-16T06:44:40;99735.00;;;17.20
9985;BMP180;16737;50.932;6.780;2024-02-16T06:47:07;99733.00;;;17.10
9985;BMP180;16737;50.932;6.780;2024-02-16T06:49:35;99754.00;;;17.10
9985;BMP180;16737;50.932;6.780;2024-02-16T06:52:02;99772.00;;;17.10
9985;BMP180;16737;50.932;6.780;2024-02-16T06:54:30;99764.00;;;17.20
9985;BMP180;16737;50.932;6.780;2024-02-16T06:56:59;99764.00;;;17.20
9985;BMP180;16737;50.932;6.780;2024-02-16T06:59:27;99765.00;;;17.20
9985;BMP180;16737;50.932;6.780;2024-02-16T07:01:54;99766.00;;;17.20
9985;BMP180;16737;50.932;6.780;2024-02-16T07:04:21;99773.00;;;17.20
9985;BMP180;16737;50.932;6.780;2024-02-16T07:06:49;99787.00;;;17.30
9985;BMP180;16737;50.932;6.780;2024-02-16T07:09:16;99789.00;;;17.30
9985;BMP180;16737;50.932;6.780;2024-02-16T07:11:44;99793.00;;;17.30
9985;BMP180;16737;50.932;6.780;2024-02-16T07:14:13;99803.00;;;17.30
9985;BMP180;16737;50.932;6.780;2024-02-16T07:16:41;99809.00;;;17.40
9985;BMP180;16737;50.932;6.780;2024-02-16T07:19:08;99804.00;;;17.40
9985;BMP180;16737;50.932;6.780;2024-02-16T07:21:36;99808.00;;;17.50
9985;BMP180;16737;50.932;6.780;2024-02-16T07:24:04;99812.00;;;17.50
9985;BMP180;16737;50.932;6.780;2024-02-16T07:26:31;99828.00;;;17.60
9985;BMP180;16737;50.932;6.780;2024-02-16T07:28:59;99811.00;;;17.60
9985;BMP180;16737;50.932;6.780;2024-02-16T07:31:32;99832.00;;;17.60
9985;BMP180;16737;50.932;6.780;2024-02-16T07:33:59;99836.00;;;17.70
9985;BMP180;16737;50.932;6.780;2024-02-16T07:36:27;99838.00;;;17.70
9985;BMP180;16737;50.932;6.780;2024-02-16T07:38:54;99846.00;;;17.80
9985;BMP180;16737;50.932;6.780;2024-02-16T07:41:21;99843.00;;;17.80
9985;BMP180;16737;50.932;6.780;2024-02-16T07:43:49;99856.00;;;17.80
9985;BMP180;16737;50.932;6.780;2024-02-16T07:46:17;99855.00;;;17.80
9985;BMP180;16737;50.932;6.780;2024-02-16T07:48:46;99856.00;;;17.80
9985;BMP180;16737;50.932;6.780;2024-02-16T07:51:13;99854.00;;;17.80
9985;BMP180;16737;50.932;6.780;2024-02-16T07:53:40;99866.00;;;17.80
9985;BMP180;16737;50.932;6.780;2024-02-16T07:56:10;99865.00;;;17.80
9985;BMP180;16737;50.932;6.780;2024-02-16T07:58:38;99868.00;;;17.70
9985;BMP180;16737;50.932;6.780;2024-02-16T08:01:05;99866.00;;;17.70
9985;BMP180;16737;50.932;6.780;2024-02-16T08:03:33;99874.00;;;17.70
9985;BMP180;16737;50.932;6.780;2024-02-16T08:06:02;99871.00;;;17.70
9985;BMP180;16737;50.932;6.780;2024-02-16T08:08:29;99878.00;;;17.70
9985;BMP180;16737;50.932;6.780;2024-02-16T08:10:57;99882.00;;;17.70
9985;BMP180;16737;50.932;6.780;2024-02-16T08:13:24;99884.00;;;17.70
9985;BMP180;16737;50.932;6.780;2024-02-16T08:15:52;99886.00;;;17.70
9985;BMP180;16737;50.932;6.780;2024-02-16T08:18:19;99889.00;;;17.60
9985;BMP180;16737;50.932;6.780;2024-02-16T08:20:47;99879.00;;;17.60
9985;BMP180;16737;50.932;6.780;2024-02-16T08:23:15;99884.00;;;17.60
9985;BMP180;16737;50.932;6.780;2024-02-16T08:25:43;99891.00;;;17.60
9985;BMP180;16737;50.932;6.780;2024-02-16T08:28:10;99888.00;;;17.60
9985;BMP180;16737;50.932;6.780;2024-02-16T08:30:38;99898.00;;;17.60
9985;BMP180;16737;50.932;6.780;2024-02-16T08:33:07;99893.00;;;17.60
9985;BMP180;16737;50.932;6.780;2024-02-16T08:35:35;99891.00;;;17.50
9985;BMP180;16737;50.932;6.780;2024-02-16T08:38:04;99899.00;;;17.60
9985;BMP180;16737;50.932;6.780;2024-02-16T08:40:32;99909.00;;;17.60
9985;BMP180;16737;50.932;6.780;2024-02-16T08:43:00;99903.00;;;17.60
9985;BMP180;16737;50.932;6.780;2024-02-16T08:45:29;99919.00;;;17.60
9985;BMP180;16737;50.932;6.780;2024-02-16T08:47:56;99916.00;;;17.70
9985;BMP180;16737;50.932;6.780;2024-02-16T08:50:24;99908.00;;;17.70
9985;BMP180;16737;50.932;6.780;2024-02-16T08:52:51;99916.00;;;17.70
9985;BMP180;16737;50.932;6.780;2024-02-16T08:55:19;99912.00;;;17.70
9985;BMP180;16737;50.932;6.780;2024-02-16T08:57:47;99918.00;;;17.80
9985;BMP180;16737;50.932;6.780;2024-02-16T09:00:16;99913.00;;;17.80
9985;BMP180;16737;50.932;6.780;2024-02-16T09:02:43;99914.00;;;17.80
9985;BMP180;16737;50.932;6.780;2024-02-16T09:05:12;99918.00;;;17.80
9985;BMP180;16737;50.932;6.780;2024-02-16T09:07:40;99923.00;;;17.90
9985;BMP180;16737;50.932;6.780;2024-02-16T09:10:08;99927.00;;;17.90
9985;BMP180;16737;50.932;6.780;2024-02-16T09:12:35;99930.00;;;17.80
9985;BMP180;16737;50.932;6.780;2024-02-16T09:15:05;99930.00;;;18.00
9985;BMP180;16737;50.932;6.780;2024-02-16T09:17:32;99933.00;;;18.00
9985;BMP180;16737;50.932;6.780;2024-02-16T09:20:00;99944.00;;;18.10
9985;BMP180;16737;50.932;6.780;2024-02-16T09:22:30;99936.00;;;18.10
9985;BMP180;16737;50.932;6.780;2024-02-16T09:24:57;99949.00;;;18.10
9985;BMP180;16737;50.932;6.780;2024-02-16T09:27:25;99944.00;;;18.10
9985;BMP180;16737;50.932;6.780;2024-02-16T09:29:53;99947.00;;;18.20
9985;BMP180;16737;50.932;6.780;2024-02-16T09:32:22;99955.00;;;18.20
9985;BMP180;16737;50.932;6.780;2024-02-16T09:34:49;99959.00;;;18.20
9985;BMP180;16737;50.932;6.780;2024-02-16T09:37:17;99963.00;;;18.30
9985;BMP180;16737;50.932;6.780;2024-02-16T09:39:44;99969.00;;;18.30
9985;BMP180;16737;50.932;6.780;2024-02-16T09:42:12;99976.00;;;18.40
9985;BMP180;16737;50.932;6.780;2024-02-16T09:44:40;99978.00;;;18.40
9985;BMP180;16737;50.932;6.780;2024-02-16T09:47:10;99981.00;;;18.50
9985;BMP180;16737;50.932;6.780;2024-02-16T09:49:41;99987.00;;;18.50
9985;BMP180;16737;50.932;6.780;2024-02-16T09:52:10;99985.00;;;18.50
9985;BMP180;16737;50.932;6.780;2024-02-16T09:54:38;99983.00;;;18.50
9985;BMP180;16737;50.932;6.780;2024-02-16T09:57:06;99992.00;;;18.60
9985;BMP180;16737;50.932;6.780;2024-02-16T09:59:34;99984.00;;;18.60
9985;BMP180;16737;50.932;6.780;2024-02-16T10:02:02;99985.00;;;18.60
9985;BMP180;16737;50.932;6.780;2024-02-16T10:04:30;99993.00;;;18.60
9985;BMP180;16737;50.932;6.780;2024-02-16T10:06:58;99993.00;;;18.60
9985;BMP180;16737;50.932;6.780;2024-02-16T10:09:27;100003.00;;;18.60
9985;BMP180;16737;50.932;6.780;2024-02-16T10:11:55;99997.00;;;18.60
9985;BMP180;16737;50.932;6.780;2024-02-16T10:14:23;100002.00;;;18.60
9985;BMP180;16737;50.932;6.780;2024-02-16T10:17:00;100013.00;;;18.60
9985;BMP180;16737;50.932;6.780;2024-02-16T10:19:29;100017.00;;;18.60
9985;BMP180;16737;50.932;6.780;2024-02-16T10:22:08;100025.00;;;18.60
9985;BMP180;16737;50.932;6.780;2024-02-16T10:24:36;100033.00;;;18.60
9985;BMP180;16737;50.932;6.780;2024-02-16T10:27:05;100036.00;;;18.60
9985;BMP180;16737;50.932;6.780;2024-02-16T10:29:33;100039.00;;;18.60
9985;BMP180;16737;50.932;6.780;2024-02-16T10:32:01;100047.00;;;18.70
9985;BMP180;16737;50.932;6.780;2024-02-16T10:34:30;100055.00;;;18.70
9985;BMP180;16737;50.932;6.780;2024-02-16T10:36:59;100056.00;;;18.70
9985;BMP180;16737;50.932;6.780;2024-02-16T10:39:28;100052.00;;;18.80
9985;BMP180;16737;50.932;6.780;2024-02-16T10:41:58;100050.00;;;18.80
9985;BMP180;16737;50.932;6.780;2024-02-16T10:44:26;100058.00;;;18.80
9985;BMP180;16737;50.932;6.780;2024-02-16T10:46:55;100049.00;;;18.80
9985;BMP180;16737;50.932;6.780;2024-02-16T10:49:23;100047.00;;;18.80
9985;BMP180;16737;50.932;6.780;2024-02-16T10:51:52;100046.00;;;18.80
9985;BMP180;16737;50.932;6.780;2024-02-16T10:54:24;100056.00;;;18.80
9985;BMP180;16737;50.932;6.780;2024-02-16T10:56:55;100058.00;;;18.80
9985;BMP180;16737;50.932;6.780;2024-02-16T10:59:23;100066.00;;;18.80
9985;BMP180;16737;50.932;6.780;2024-02-16T11:02:00;100064.00;;;18.80
9985;BMP180;16737;50.932;6.780;2024-02-16T11:04:37;100068.00;;;18.80
9985;BMP180;16737;50.932;6.780;2024-02-16T11:07:11;100073.00;;;18.80
9985;BMP180;16737;50.932;6.780;2024-02-16T11:09:40;100067.00;;;18.90
9985;BMP180;16737;50.932;6.780;2024-02-16T11:12:11;100070.00;;;18.90
9985;BMP180;16737;50.932;6.780;2024-02-16T11:14:40;100066.00;;;18.90
9985;BMP180;16737;50.932;6.780;2024-02-16T11:17:09;100066.00;;;18.90
9985;BMP180;16737;50.932;6.780;2024-02-16T11:19:37;100077.00;;;18.90
9985;BMP180;16737;50.932;6.780;2024-02-16T11:22:05;100077.00;;;19.00
9985;BMP180;16737;50.932;6.780;2024-02-16T11:24:35;100069.00;;;19.00
9985;BMP180;16737;50.932;6.780;2024-02-16T11:27:03;100066.00;;;19.10
9985;BMP180;16737;50.932;6.780;2024-02-16T11:29:34;100069.00;;;19.10
9985;BMP180;16737;50.932;6.780;2024-02-16T11:32:02;100074.00;;;19.20
9985;BMP180;16737;50.932;6.780;2024-02-16T11:34:31;100079.00;;;19.30
9985;BMP180;16737;50.932;6.780;2024-02-16T11:37:00;100081.00;;;19.30
9985;BMP180;16737;50.932;6.780;2024-02-16T11:39:28;100081.00;;;19.30
9985;BMP180;16737;50.932;6.780;2024-02-16T11:42:01;100089.00;;;19.40
9985;BMP180;16737;50.932;6.780;2024-02-16T11:44:29;100096.00;;;19.40
9985;BMP180;16737;50.932;6.780;2024-02-16T11:47:00;100090.00;;;19.40
9985;BMP180;16737;50.932;6.780;2024-02-16T11:49:28;100093.00;;;19.40
9985;BMP180;16737;50.932;6.780;2024-02-16T11:51:56;100093.00;;;19.40
9985;BMP180;16737;50.932;6.780;2024-02-16T11:54:24;100102.00;;;19.40
9985;BMP180;16737;50.932;6.780;2024-02-16T11:56:52;100097.00;;;19.50
9985;BMP180;16737;50.932;6.780;2024-02-16T11:59:20;100099.00;;;19.50
9985;BMP180;16737;50.932;6.780;2024-02-16T12:01:51;100099.00;;;19.50
9985;BMP180;16737;50.932;6.780;2024-02-16T12:04:24;100101.00;;;19.50
9985;BMP180;16737;50.932;6.780;2024-02-16T12:06:53;100104.00;;;19.60
9985;BMP180;16737;50.932;6.780;2024-02-16T12:09:20;100099.00;;;19.60
9985;BMP180;16737;50.932;6.780;2024-02-16T12:11:48;100096.00;;;19.60
9985;BMP180;16737;50.932;6.780;2024-02-16T12:14:16;100111.00;;;19.70
9985;BMP180;16737;50.932;6.780;2024-02-16T12:16:46;100117.00;;;19.70
9985;BMP180;16737;50.932;6.780;2024-02-16T12:19:14;100103.00;;;19.70
9985;BMP180;16737;50.932;6.780;2024-02-16T12:21:42;100119.00;;;19.70
9985;BMP180;16737;50.932;6.780;2024-02-16T12:24:10;100114.00;;;19.70
9985;BMP180;16737;50.932;6.780;2024-02-16T12:26:38;100122.00;;;19.70
9985;BMP180;16737;50.932;6.780;2024-02-16T12:29:07;100118.00;;;19.70
9985;BMP180;16737;50.932;6.780;2024-02-16T12:31:38;100124.00;;;19.70
9985;BMP180;16737;50.932;6.780;2024-02-16T12:34:07;100134.00;;;19.70
9985;BMP180;16737;50.932;6.780;2024-02-16T12:36:34;100136.00;;;19.70
9985;BMP180;16737;50.932;6.780;2024-02-16T12:39:03;100126.00;;;19.70
9985;BMP180;16737;50.932;6.780;2024-02-16T12:41:32;100126.00;;;19.70
9985;BMP180;16737;50.932;6.780;2024-02-16T12:44:00;100127.00;;;19.60
9985;BMP180;16737;50.932;6.780;2024-02-16T12:46:27;100132.00;;;19.60
9985;BMP180;16737;50.932;6.780;2024-02-16T12:48:55;100143.00;;;19.50
9985;BMP180;16737;50.932;6.780;2024-02-16T12:51:25;100140.00;;;19.50
9985;BMP180;16737;50.932;6.780;2024-02-16T12:53:53;100142.00;;;19.50
9985;BMP180;16737;50.932;6.780;2024-02-16T12:56:21;100134.00;;;19.50
9985;BMP180;16737;50.932;6.780;2024-02-16T12:58:49;100141.00;;;19.50
9985;BMP180;16737;50.932;6.780;2024-02-16T13:01:16;100137.00;;;19.40
9985;BMP180;16737;50.932;6.780;2024-02-16T13:03:44;100144.00;;;19.40
9985;BMP180;16737;50.932;6.780;2024-02-16T13:06:11;100140.00;;;19.40
9985;BMP180;16737;50.932;6.780;2024-02-16T13:08:39;100146.00;;;19.30
9985;BMP180;16737;50.932;6.780;2024-02-16T13:11:06;100141.00;;;19.30
9985;BMP180;16737;50.932;6.780;2024-02-16T13:13:36;100149.00;;;19.30
9985;BMP180;16737;50.932;6.780;2024-02-16T13:16:03;100144.00;;;19.30
9985;BMP180;16737;50.932;6.780;2024-02-16T13:18:31;100148.00;;;19.30
9985;BMP180;16737;50.932;6.780;2024-02-16T13:20:58;100151.00;;;19.30
9985;BMP180;16737;50.932;6.780;2024-02-16T13:23:25;100145.00;;;19.30
9985;BMP180;16737;50.932;6.780;2024-02-16T13:25:55;100147.00;;;19.30
9985;BMP180;16737;50.932;6.780;2024-02-16T13:28:22;100155.00;;;19.20
9985;BMP180;16737;50.932;6.780;2024-02-16T13:30:51;100152.00;;;19.20
9985;BMP180;16737;50.932;6.780;2024-02-16T13:33:18;100154.00;;;19.30
9985;BMP180;16737;50.932;6.780;2024-02-16T13:35:46;100155.00;;;19.20
9985;BMP180;16737;50.932;6.780;2024-02-16T13:38:14;100169.00;;;19.30
9985;BMP180;16737;50.932;6.780;2024-02-16T13:40:41;100166.00;;;19.30
9985;BMP180;16737;50.932;6.780;2024-02-16T13:43:09;100171.00;;;19.30
9985;BMP180;16737;50.932;6.780;2024-02-16T13:45:50;100166.00;;;19.30
9985;BMP180;16737;50.932;6.780;2024-02-16T13:48:18;100177.00;;;19.30
9985;BMP180;16737;50.932;6.780;2024-02-16T13:50:46;100180.00;;;19.30
9985;BMP180;16737;50.932;6.780;2024-02-16T13:53:14;100184.00;;;18.90
9985;BMP180;16737;50.932;6.780;2024-02-16T13:55:42;100187.00;;;19.20
9985;BMP180;16737;50.932;6.780;2024-02-16T13:58:10;100188.00;;;19.10
9985;BMP180;16737;50.932;6.780;2024-02-16T14:00:37;100197.00;;;19.10
9985;BMP180;16737;50.932;6.780;2024-02-16T14:03:08;100197.00;;;19.00
9985;BMP180;16737;50.932;6.780;2024-02-16T14:05:36;100191.00;;;19.00
9985;BMP180;16737;50.932;6.780;2024-02-16T14:08:04;100193.00;;;19.00
9985;BMP180;16737;50.932;6.780;2024-02-16T14:10:32;100193.00;;;19.00
9985;BMP180;16737;50.932;6.780;2024-02-16T14:13:00;100202.00;;;19.00
9985;BMP180;16737;50.932;6.780;2024-02-16T14:15:27;100200.00;;;19.00
9985;BMP180;16737;50.932;6.780;2024-02-16T14:17:54;100209.00;;;19.00
9985;BMP180;16737;50.932;6.780;2024-02-16T14:20:24;100208.00;;;19.00
9985;BMP180;16737;50.932;6.780;2024-02-16T14:22:51;100212.00;;;18.80
9985;BMP180;16737;50.932;6.780;2024-02-16T14:25:19;100220.00;;;19.00